createdAt,value
2017-08-09T00:00:06.072Z,0
2017-08-09T00:01:06.126Z,0
2017-08-09T00:02:05.804Z,0
2017-08-09T00:03:06.156Z,0
2017-08-09T00:04:20.776Z,0
2017-08-09T00:05:06.218Z,0
2017-08-09T00:06:20.816Z,0
2017-08-09T00:09:05.988Z,0
2017-08-09T00:11:06.361Z,0
2017-08-09T00:12:06.402Z,0
2017-08-09T00:13:06.470Z,0
2017-08-09T00:14:06.146Z,0
2017-08-09T00:15:21.055Z,0
2017-08-09T00:16:06.480Z,0
2017-08-09T00:17:06.507Z,0
2017-08-09T00:18:06.238Z,0
2017-08-09T00:19:06.598Z,0
2017-08-09T00:20:06.592Z,0
2017-08-09T00:21:06.314Z,0
2017-08-09T00:22:06.631Z,0
2017-08-09T00:23:06.691Z,0
2017-08-09T00:24:06.381Z,0
2017-08-09T00:25:21.338Z,0
2017-08-09T00:27:06.774Z,0
2017-08-09T00:28:06.803Z,0
2017-08-09T00:29:06.535Z,0
2017-08-09T00:30:06.531Z,0
2017-08-09T00:31:06.892Z,0
2017-08-09T00:32:06.895Z,0
2017-08-09T00:33:06.936Z,0
2017-08-09T00:34:21.243Z,0
2017-08-09T00:35:06.677Z,0
2017-08-09T00:36:21.677Z,0
2017-08-09T00:37:06.704Z,0
2017-08-09T00:38:06.757Z,0
2017-08-09T00:39:06.755Z,0
2017-08-09T00:40:07.118Z,0
2017-08-09T00:41:06.829Z,0
2017-08-09T00:42:06.851Z,0
2017-08-09T00:43:07.198Z,0
2017-08-09T00:44:07.209Z,0
2017-08-09T00:45:06.944Z,0
2017-08-09T00:46:07.275Z,0
2017-08-09T00:47:07.288Z,0
2017-08-09T00:48:06.695Z,0
2017-08-09T00:49:07.335Z,0
2017-08-09T00:50:07.080Z,0
2017-08-09T00:51:07.097Z,0
2017-08-09T00:52:22.026Z,0
2017-08-09T00:53:07.443Z,0
2017-08-09T00:54:07.470Z,0
2017-08-09T00:55:07.200Z,0
2017-08-09T00:56:07.268Z,0
2017-08-09T00:57:07.565Z,0
2017-08-09T00:59:07.590Z,0
2017-08-09T01:00:07.309Z,0
2017-08-09T01:01:07.358Z,0
2017-08-09T01:02:07.694Z,0
2017-08-09T01:03:07.379Z,0
2017-08-09T01:04:07.734Z,0
2017-08-09T01:05:07.454Z,0
2017-08-09T01:06:07.800Z,0
2017-08-09T01:07:07.512Z,0
2017-08-09T01:08:22.449Z,0
2017-08-09T01:09:07.869Z,0
2017-08-09T01:10:07.906Z,0
2017-08-09T01:11:07.915Z,0
2017-08-09T01:12:07.925Z,0
2017-08-09T01:13:07.996Z,0
2017-08-09T01:15:07.722Z,0
2017-08-09T01:16:22.639Z,0
2017-08-09T01:17:22.673Z,0
2017-08-09T01:18:08.080Z,0
2017-08-09T01:19:08.105Z,0
2017-08-09T01:20:07.224Z,0
2017-08-09T01:21:08.165Z,0
2017-08-09T01:22:08.201Z,0
2017-08-09T01:23:08.242Z,0
2017-08-09T01:24:22.866Z,0
2017-08-09T01:25:07.974Z,0
2017-08-09T01:26:08.315Z,0
2017-08-09T01:27:08.311Z,0
2017-08-09T01:28:08.056Z,0
2017-08-09T01:29:08.375Z,0
2017-08-09T01:30:08.395Z,0
2017-08-09T01:31:08.426Z,0
2017-08-09T01:32:08.464Z,0
2017-08-09T01:33:08.489Z,0
2017-08-09T01:34:08.206Z,0
2017-08-09T01:35:08.222Z,0
2017-08-09T01:36:08.535Z,0
2017-08-09T01:37:08.287Z,0
2017-08-09T01:38:08.620Z,0
2017-08-09T01:39:22.934Z,0
2017-08-09T01:40:08.418Z,0
2017-08-09T01:41:08.392Z,0
2017-08-09T01:42:08.711Z,0
2017-08-09T01:43:08.433Z,0
2017-08-09T01:44:08.783Z,0
2017-08-09T01:46:08.210Z,0
2017-08-09T01:47:08.821Z,0
2017-08-09T01:48:08.883Z,0
2017-08-09T01:49:08.581Z,0
2017-08-09T01:50:08.911Z,0
2017-08-09T01:51:08.956Z,0
2017-08-09T01:52:08.965Z,0
2017-08-09T01:53:09.010Z,0
2017-08-09T01:54:09.043Z,0
2017-08-09T01:55:09.071Z,0
2017-08-09T01:56:09.085Z,0
2017-08-09T01:57:09.113Z,0
2017-08-09T01:58:23.724Z,0
2017-08-09T01:59:09.141Z,0
2017-08-09T02:00:09.182Z,0
2017-08-09T02:01:09.188Z,0
2017-08-09T02:02:09.248Z,0
2017-08-09T02:03:23.862Z,0
2017-08-09T02:04:09.278Z,0
2017-08-09T02:05:08.989Z,0
2017-08-09T02:06:09.340Z,0
2017-08-09T02:07:09.358Z,0
2017-08-09T02:08:09.394Z,0
2017-08-09T02:09:09.112Z,0
2017-08-09T02:10:08.818Z,0
2017-08-09T02:11:24.072Z,0
2017-08-09T02:12:09.474Z,0
2017-08-09T02:13:09.519Z,0
2017-08-09T02:14:09.546Z,0
2017-08-09T02:15:24.165Z,0
2017-08-09T02:16:09.271Z,0
2017-08-09T02:17:24.234Z,0
2017-08-09T02:18:09.620Z,0
2017-08-09T02:19:09.685Z,0
2017-08-09T02:20:24.301Z,0
2017-08-09T02:21:24.315Z,0
2017-08-09T02:22:09.746Z,0
2017-08-09T02:23:09.755Z,0
2017-08-09T02:24:09.809Z,0
2017-08-09T02:25:09.816Z,0
2017-08-09T02:26:09.546Z,0
2017-08-09T02:27:24.487Z,0
2017-08-09T02:28:24.507Z,0
2017-08-09T02:29:24.532Z,0
2017-08-09T02:30:09.969Z,0
2017-08-09T02:31:09.982Z,0
2017-08-09T02:32:10.017Z,0
2017-08-09T02:33:10.023Z,0
2017-08-09T02:34:24.659Z,0
2017-08-09T02:35:09.782Z,0
2017-08-09T02:36:09.817Z,0
2017-08-09T02:37:09.836Z,0
2017-08-09T02:38:09.842Z,0
2017-08-09T02:39:10.187Z,0
2017-08-09T02:40:24.489Z,0
2017-08-09T02:41:09.934Z,0
2017-08-09T02:42:24.539Z,0
2017-08-09T02:43:24.902Z,0
2017-08-09T02:44:10.295Z,0
2017-08-09T02:45:24.953Z,0
2017-08-09T02:46:10.361Z,0
2017-08-09T02:47:10.402Z,0
2017-08-09T02:48:10.417Z,0
2017-08-09T02:49:10.428Z,0
2017-08-09T02:50:10.471Z,0
2017-08-09T02:51:24.780Z,0
2017-08-09T02:52:10.524Z,0
2017-08-09T02:53:10.553Z,0
2017-08-09T02:54:10.575Z,0
2017-08-09T02:55:10.269Z,0
2017-08-09T02:56:10.625Z,0
2017-08-09T02:57:10.649Z,0
2017-08-09T02:58:10.657Z,0
2017-08-09T02:59:24.986Z,0
2017-08-09T03:00:10.751Z,0
2017-08-09T03:01:10.765Z,0
2017-08-09T03:02:10.747Z,0
2017-08-09T03:03:10.798Z,0
2017-08-09T03:04:10.798Z,0
2017-08-09T03:05:25.445Z,0
2017-08-09T03:06:10.849Z,0
2017-08-09T03:07:10.890Z,0
2017-08-09T03:08:10.923Z,0
2017-08-09T03:09:10.953Z,0
2017-08-09T03:10:10.976Z,0
2017-08-09T03:11:11.008Z,0
2017-08-09T03:12:11.030Z,4
2017-08-09T03:13:10.735Z,4
2017-08-09T03:14:25.671Z,4
2017-08-09T03:15:11.104Z,0
2017-08-09T03:16:10.497Z,4
2017-08-09T03:17:10.844Z,4
2017-08-09T03:18:11.179Z,4
2017-08-09T03:19:11.201Z,4
2017-08-09T03:21:11.255Z,8
2017-08-09T03:22:10.959Z,12
2017-08-09T03:23:11.295Z,12
2017-08-09T03:24:11.028Z,16
2017-08-09T03:25:11.347Z,16
2017-08-09T03:26:25.985Z,20
2017-08-09T03:27:11.407Z,20
2017-08-09T03:28:11.423Z,24
2017-08-09T03:29:11.439Z,36
2017-08-09T03:30:11.494Z,44
2017-08-09T03:31:11.204Z,48
2017-08-09T03:32:11.543Z,60
2017-08-09T03:33:11.538Z,72
2017-08-09T03:35:11.619Z,88
2017-08-09T03:36:11.613Z,100
2017-08-09T03:37:26.257Z,104
2017-08-09T03:38:11.687Z,112
2017-08-09T03:39:16.736Z,120
2017-08-09T03:40:11.746Z,132
2017-08-09T03:41:11.758Z,144
2017-08-09T03:42:11.791Z,156
2017-08-09T03:43:11.790Z,168
2017-08-09T03:44:11.824Z,184
2017-08-09T03:46:26.470Z,208
2017-08-09T03:47:11.617Z,216
2017-08-09T03:48:11.304Z,228
2017-08-09T03:49:11.964Z,240
2017-08-09T03:50:11.980Z,256
2017-08-09T03:51:11.993Z,268
2017-08-09T03:52:11.732Z,284
2017-08-09T03:53:26.672Z,304
2017-08-09T03:54:26.679Z,336
2017-08-09T03:55:12.118Z,372
2017-08-09T03:56:26.740Z,444
2017-08-09T03:57:11.865Z,508
2017-08-09T03:58:26.168Z,624
2017-08-09T03:59:26.824Z,712
2017-08-09T04:00:11.932Z,772
2017-08-09T04:01:12.265Z,848
2017-08-09T04:02:26.580Z,924
2017-08-09T04:03:12.327Z,960
2017-08-09T04:04:12.332Z,1008
2017-08-09T04:05:12.376Z,1080
2017-08-09T04:06:12.387Z,1144
2017-08-09T04:07:12.417Z,1172
2017-08-09T04:08:12.421Z,1196
2017-08-09T04:09:12.466Z,1188
2017-08-09T04:11:12.224Z,1244
2017-08-09T04:13:12.571Z,1340
2017-08-09T04:14:12.577Z,1312
2017-08-09T04:15:12.601Z,1228
2017-08-09T04:16:12.339Z,1116
2017-08-09T04:17:12.668Z,984
2017-08-09T04:18:27.297Z,876
2017-08-09T04:19:12.701Z,880
2017-08-09T04:20:12.754Z,928
2017-08-09T04:21:12.761Z,988
2017-08-09T04:22:12.168Z,976
2017-08-09T04:23:12.813Z,952
2017-08-09T04:24:12.548Z,1000
2017-08-09T04:25:12.869Z,1080
2017-08-09T04:26:12.900Z,1164
2017-08-09T04:27:12.900Z,1316
2017-08-09T04:28:12.943Z,1516
2017-08-09T04:29:12.962Z,1760
2017-08-09T04:30:12.993Z,2072
2017-08-09T04:31:13.008Z,2356
2017-08-09T04:32:13.051Z,2544
2017-08-09T04:33:13.072Z,2736
2017-08-09T04:34:27.697Z,2988
2017-08-09T04:35:13.123Z,3108
2017-08-09T04:36:13.162Z,3240
2017-08-09T04:37:13.142Z,3436
2017-08-09T04:38:13.204Z,3680
2017-08-09T04:39:13.277Z,3892
2017-08-09T04:40:12.939Z,4180
2017-08-09T04:41:13.281Z,5416
2017-08-09T04:42:13.295Z,4876
2017-08-09T04:43:13.311Z,4812
2017-08-09T04:44:13.356Z,5100
2017-08-09T04:45:27.980Z,5480
2017-08-09T04:46:13.399Z,5872
2017-08-09T04:47:13.428Z,6360
2017-08-09T04:49:27.763Z,5660
2017-08-09T04:50:13.515Z,5152
2017-08-09T04:51:13.531Z,4868
2017-08-09T04:52:13.573Z,4908
2017-08-09T04:53:13.587Z,5080
2017-08-09T04:55:13.320Z,8672
2017-08-09T04:56:13.358Z,8444
2017-08-09T04:57:13.665Z,8948
2017-08-09T04:58:13.724Z,9684
2017-08-09T04:59:28.329Z,5144
2017-08-09T05:00:13.811Z,5348
2017-08-09T05:01:13.768Z,5856
2017-08-09T05:02:27.793Z,7136
2017-08-09T05:03:13.819Z,11416
2017-08-09T05:04:13.894Z,11096
2017-08-09T05:05:13.895Z,24640
2017-08-09T05:06:13.910Z,28320
2017-08-09T05:07:13.925Z,25152
2017-08-09T05:08:28.551Z,39008
2017-08-09T05:09:13.987Z,30880
2017-08-09T05:10:14.028Z,31424
2017-08-09T05:12:14.075Z,37280
2017-08-09T05:14:14.106Z,50784
2017-08-09T05:16:14.180Z,53664
2017-08-09T05:17:14.190Z,55008
2017-08-09T05:18:13.926Z,54432
2017-08-09T05:19:14.248Z,55456
2017-08-09T05:20:13.987Z,54816
2017-08-09T05:21:28.614Z,54624
2017-08-09T05:22:14.333Z,54080
2017-08-09T05:23:14.074Z,53568
2017-08-09T05:24:14.099Z,54592
2017-08-09T05:25:14.425Z,54912
2017-08-09T05:26:14.177Z,55200
2017-08-09T05:27:14.499Z,52640
2017-08-09T05:28:14.550Z,49280
2017-08-09T05:29:14.574Z,55776
2017-08-09T05:30:14.612Z,49728
2017-08-09T05:31:14.636Z,53728
2017-08-09T05:33:14.073Z,57888
2017-08-09T05:34:14.109Z,60992
2017-08-09T05:35:14.781Z,61888
2017-08-09T05:36:14.469Z,61888
2017-08-09T05:37:29.429Z,62208
2017-08-09T05:38:14.557Z,60832
2017-08-09T05:40:29.226Z,57024
2017-08-09T05:41:14.661Z,54112
2017-08-09T05:42:14.694Z,59328
2017-08-09T05:43:14.722Z,17920
2017-08-09T05:44:15.073Z,15252
2017-08-09T05:45:15.078Z,60512
2017-08-09T05:46:14.837Z,59616
2017-08-09T05:47:15.168Z,63168
2017-08-09T05:48:15.231Z,63840
2017-08-09T05:49:15.237Z,63584
2017-08-09T05:50:15.283Z,60576
2017-08-09T05:51:15.314Z,59168
2017-08-09T05:52:29.634Z,59968
2017-08-09T05:53:29.969Z,63648
2017-08-09T05:54:15.112Z,66816
2017-08-09T05:55:14.825Z,67008
2017-08-09T05:56:15.157Z,66176
2017-08-09T05:57:15.192Z,59136
2017-08-09T05:58:15.572Z,65376
2017-08-09T05:59:15.287Z,21792
2017-08-09T06:00:15.307Z,66784
2017-08-09T06:01:15.667Z,67200
2017-08-09T06:02:15.368Z,68640
2017-08-09T06:04:15.752Z,69376
2017-08-09T06:06:15.527Z,68064
2017-08-09T06:07:15.870Z,70944
2017-08-09T06:08:15.908Z,75104
2017-08-09T06:09:45.148Z,77920
2017-08-09T06:10:15.982Z,77664
2017-08-09T06:11:16.024Z,77568
2017-08-09T06:12:16.029Z,78080
2017-08-09T06:13:15.773Z,77184
2017-08-09T06:14:16.119Z,77728
2017-08-09T06:15:16.171Z,76096
2017-08-09T06:16:16.206Z,75456
2017-08-09T06:17:16.223Z,75072
2017-08-09T06:18:16.263Z,73984
2017-08-09T06:19:16.320Z,73152
2017-08-09T06:20:30.956Z,73376
2017-08-09T06:21:16.089Z,73248
2017-08-09T06:22:16.400Z,74848
2017-08-09T06:23:16.455Z,76224
2017-08-09T06:24:31.102Z,76448
2017-08-09T06:25:16.533Z,76000
2017-08-09T06:26:16.269Z,71328
2017-08-09T06:27:16.600Z,69984
2017-08-09T06:28:16.330Z,72096
2017-08-09T06:29:16.647Z,73792
2017-08-09T06:30:16.130Z,75648
2017-08-09T06:31:16.737Z,76256
2017-08-09T06:32:16.487Z,76544
2017-08-09T06:33:16.827Z,76096
2017-08-09T06:34:16.566Z,75680
2017-08-09T06:35:16.969Z,75808
2017-08-09T06:36:16.623Z,76000
2017-08-09T06:37:16.952Z,75104
2017-08-09T06:38:16.707Z,76000
2017-08-09T06:39:17.052Z,64128
2017-08-09T06:40:17.088Z,38432
2017-08-09T06:41:17.118Z,16428
2017-08-09T06:42:16.833Z,16964
2017-08-09T06:43:16.898Z,72352
2017-08-09T06:44:17.238Z,26016
2017-08-09T06:45:17.269Z,60448
2017-08-09T06:46:31.926Z,72768
2017-08-09T06:47:17.024Z,73920
2017-08-09T06:48:17.080Z,77216
2017-08-09T06:49:17.102Z,78912
2017-08-09T06:50:17.138Z,75040
2017-08-09T06:51:17.187Z,77120
2017-08-09T06:52:17.515Z,78816
2017-08-09T06:53:17.577Z,77024
2017-08-09T06:54:17.593Z,75680
2017-08-09T06:55:17.646Z,77120
2017-08-09T06:56:32.273Z,75296
2017-08-09T06:57:17.722Z,75456
2017-08-09T06:58:17.739Z,75072
2017-08-09T06:59:17.765Z,75904
2017-08-09T07:00:32.427Z,58464
2017-08-09T07:01:32.465Z,53312
2017-08-09T07:02:17.922Z,62688
2017-08-09T07:03:17.943Z,58336
2017-08-09T07:04:32.268Z,51776
2017-08-09T07:05:18.003Z,54720
2017-08-09T07:06:18.052Z,54016
2017-08-09T07:07:18.083Z,51264
2017-08-09T07:08:18.132Z,47488
2017-08-09T07:09:17.862Z,47808
2017-08-09T07:10:18.203Z,45280
2017-08-09T07:11:18.234Z,43424
2017-08-09T07:13:18.301Z,44288
2017-08-09T07:14:18.045Z,50496
2017-08-09T07:15:18.366Z,57056
2017-08-09T07:16:18.408Z,59424
2017-08-09T07:18:18.502Z,48448
2017-08-09T07:19:17.921Z,45088
2017-08-09T07:20:18.557Z,36704
2017-08-09T07:21:18.634Z,34528
2017-08-09T07:22:18.627Z,34688
2017-08-09T07:23:18.376Z,41952
2017-08-09T07:24:18.721Z,52704
2017-08-09T07:25:18.751Z,51424
2017-08-09T07:26:18.796Z,50944
2017-08-09T07:27:18.841Z,50656
2017-08-09T07:28:33.451Z,36416
2017-08-09T07:29:18.935Z,31616
2017-08-09T07:30:18.946Z,40384
2017-08-09T07:31:18.950Z,45152
2017-08-09T07:32:19.021Z,40256
2017-08-09T07:33:19.047Z,41920
2017-08-09T07:34:19.081Z,48000
2017-08-09T07:35:19.106Z,29856
2017-08-09T07:36:18.818Z,27648
2017-08-09T07:37:19.202Z,22048
2017-08-09T07:38:33.515Z,16480
2017-08-09T07:39:18.997Z,15296
2017-08-09T07:40:19.001Z,14800
2017-08-09T07:41:33.918Z,21632
2017-08-09T07:42:19.064Z,25632
2017-08-09T07:43:19.086Z,39936
2017-08-09T07:44:33.732Z,41088
2017-08-09T07:45:34.073Z,43200
2017-08-09T07:46:19.494Z,49888
2017-08-09T07:47:34.156Z,42464
2017-08-09T07:48:19.246Z,38912
2017-08-09T07:49:19.623Z,38080
2017-08-09T07:50:34.249Z,28224
2017-08-09T07:51:19.689Z,26784
2017-08-09T07:52:34.309Z,21568
2017-08-09T07:53:19.749Z,17408
2017-08-09T07:54:19.786Z,32576
2017-08-09T07:55:19.804Z,37952
2017-08-09T07:56:19.914Z,37056
2017-08-09T07:57:19.893Z,31456
2017-08-09T07:58:19.926Z,43136
2017-08-09T07:59:34.248Z,41568
2017-08-09T08:00:19.681Z,39904
2017-08-09T08:01:20.041Z,48032
2017-08-09T08:02:20.059Z,52096
2017-08-09T08:03:20.112Z,51296
2017-08-09T08:04:20.115Z,45472
2017-08-09T08:06:20.209Z,45536
2017-08-09T08:07:20.242Z,46304
2017-08-09T08:08:20.273Z,36800
2017-08-09T08:09:20.291Z,34752
2017-08-09T08:10:20.038Z,25216
2017-08-09T08:12:34.998Z,18144
2017-08-09T08:13:20.463Z,18304
2017-08-09T08:14:20.483Z,21280
2017-08-09T08:15:20.519Z,17120
2017-08-09T08:16:20.530Z,15320
2017-08-09T08:17:20.586Z,26848
2017-08-09T08:18:20.634Z,23360
2017-08-09T08:19:20.650Z,13792
2017-08-09T08:20:20.692Z,12728
2017-08-09T08:21:20.709Z,14808
2017-08-09T08:22:20.452Z,13784
2017-08-09T08:23:20.780Z,12644
2017-08-09T08:24:20.214Z,17344
2017-08-09T08:25:20.846Z,23648
2017-08-09T08:26:20.896Z,22272
2017-08-09T08:27:20.940Z,18784
2017-08-09T08:28:20.951Z,15960
2017-08-09T08:29:21.013Z,14872
2017-08-09T08:30:35.624Z,14324
2017-08-09T08:31:35.351Z,14104
2017-08-09T08:32:21.078Z,14072
2017-08-09T08:33:21.137Z,14284
2017-08-09T08:34:20.845Z,14204
2017-08-09T08:35:21.197Z,14064
2017-08-09T08:36:21.234Z,13960
2017-08-09T08:37:21.276Z,13536
2017-08-09T08:39:35.938Z,13112
2017-08-09T08:40:21.352Z,13036
2017-08-09T08:41:21.407Z,13004
2017-08-09T08:42:21.411Z,13020
2017-08-09T08:43:21.463Z,13200
2017-08-09T08:44:21.190Z,14288
2017-08-09T08:45:35.817Z,17280
2017-08-09T08:46:21.566Z,20896
2017-08-09T08:47:36.183Z,20768
2017-08-09T08:48:21.616Z,17920
2017-08-09T08:49:21.648Z,24192
2017-08-09T08:50:21.697Z,26496
2017-08-09T08:51:21.422Z,25856
2017-08-09T08:52:21.750Z,24704
2017-08-09T08:53:21.459Z,23776
2017-08-09T08:54:21.817Z,22880
2017-08-09T08:55:21.854Z,16076
2017-08-09T08:57:21.930Z,22944
2017-08-09T08:58:21.375Z,23232
2017-08-09T08:59:21.991Z,23360
2017-08-09T09:00:36.302Z,23104
2017-08-09T09:02:21.770Z,22048
2017-08-09T09:03:36.740Z,21120
2017-08-09T09:04:22.151Z,20064
2017-08-09T09:05:22.180Z,20128
2017-08-09T09:07:22.255Z,19200
2017-08-09T09:10:22.064Z,18592
2017-08-09T09:12:22.442Z,18368
2017-08-09T09:13:22.168Z,18144
2017-08-09T09:14:22.500Z,18208
2017-08-09T09:15:22.554Z,18240
2017-08-09T09:16:22.566Z,18048
2017-08-09T09:17:22.622Z,18080
2017-08-09T09:18:22.649Z,18208
2017-08-09T09:19:37.081Z,18016
2017-08-09T09:20:22.711Z,17984
2017-08-09T09:21:22.762Z,17420
2017-08-09T09:22:22.792Z,17760
2017-08-09T09:23:22.815Z,17416
2017-08-09T09:24:22.858Z,17128
2017-08-09T09:25:22.867Z,17012
2017-08-09T09:26:22.934Z,17068
2017-08-09T09:27:22.965Z,16920
2017-08-09T09:28:22.677Z,17024
2017-08-09T09:29:23.054Z,17084
2017-08-09T09:30:23.061Z,16864
2017-08-09T09:31:23.112Z,16660
2017-08-09T09:32:23.137Z,16540
2017-08-09T09:33:37.780Z,16436
2017-08-09T09:34:37.803Z,16388
2017-08-09T09:35:23.240Z,16308
2017-08-09T09:36:23.278Z,16272
2017-08-09T09:37:22.690Z,16072
2017-08-09T09:38:23.376Z,15976
2017-08-09T09:39:23.380Z,15872
2017-08-09T09:40:23.422Z,15868
2017-08-09T09:41:23.457Z,9096
2017-08-09T09:42:23.213Z,15772
2017-08-09T09:43:23.533Z,15284
2017-08-09T09:44:23.532Z,15316
2017-08-09T09:45:23.285Z,15244
2017-08-09T09:46:23.626Z,15048
2017-08-09T09:47:23.676Z,15084
2017-08-09T09:48:23.715Z,15124
2017-08-09T09:49:23.743Z,15220
2017-08-09T09:50:23.451Z,15240
2017-08-09T09:51:23.788Z,15292
2017-08-09T09:52:23.856Z,10788
2017-08-09T09:54:23.904Z,8152
2017-08-09T09:55:38.554Z,15228
2017-08-09T09:56:38.587Z,12748
2017-08-09T09:57:24.022Z,16408
2017-08-09T09:58:24.050Z,16304
2017-08-09T09:59:23.774Z,16364
2017-08-09T10:00:24.126Z,15756
2017-08-09T10:01:24.137Z,15192
2017-08-09T10:04:24.254Z,15648
2017-08-09T10:05:24.301Z,16148
2017-08-09T10:06:38.612Z,16052
2017-08-09T10:07:24.359Z,15880
2017-08-09T10:08:24.396Z,15456
2017-08-09T10:09:24.433Z,15532
2017-08-09T10:10:38.754Z,15480
2017-08-09T10:11:24.489Z,15332
2017-08-09T10:12:24.541Z,15108
2017-08-09T10:13:24.594Z,14836
2017-08-09T10:14:24.595Z,14704
2017-08-09T10:15:24.617Z,14500
2017-08-09T10:16:24.899Z,14288
2017-08-09T10:17:24.928Z,14204
2017-08-09T10:18:24.750Z,14196
2017-08-09T10:19:24.771Z,14320
2017-08-09T10:20:24.799Z,14240
2017-08-09T10:22:39.160Z,14428
2017-08-09T10:23:39.513Z,14592
2017-08-09T10:24:39.544Z,14432
2017-08-09T10:25:24.981Z,14300
2017-08-09T10:26:24.984Z,14024
2017-08-09T10:27:25.051Z,13840
2017-08-09T10:28:25.087Z,13552
2017-08-09T10:29:25.122Z,13524
2017-08-09T10:30:25.136Z,13672
2017-08-09T10:31:25.203Z,14104
2017-08-09T10:32:25.219Z,14252
2017-08-09T10:33:25.259Z,14232
2017-08-09T10:34:39.872Z,9172
2017-08-09T10:36:25.347Z,8716
2017-08-09T10:37:39.986Z,12488
2017-08-09T10:38:39.723Z,13960
2017-08-09T10:39:25.441Z,14244
2017-08-09T10:40:40.104Z,7268
2017-08-09T10:41:25.210Z,6892
2017-08-09T10:42:39.834Z,6648
2017-08-09T10:43:25.290Z,6212
2017-08-09T10:44:25.628Z,8996
2017-08-09T10:46:25.677Z,13288
2017-08-09T10:47:25.707Z,13888
2017-08-09T10:48:25.762Z,14344
2017-08-09T10:49:25.780Z,14196
2017-08-09T10:50:40.430Z,13740
2017-08-09T10:51:25.548Z,13668
2017-08-09T10:52:25.570Z,13424
2017-08-09T10:53:25.617Z,12996
2017-08-09T10:54:39.930Z,12940
2017-08-09T10:55:25.977Z,12540
2017-08-09T10:56:25.713Z,12660
2017-08-09T10:57:25.739Z,7152
2017-08-09T10:58:26.092Z,11968
2017-08-09T10:59:40.717Z,7492
2017-08-09T11:00:26.160Z,7336
2017-08-09T11:01:26.182Z,12912
2017-08-09T11:02:26.282Z,12684
2017-08-09T11:03:40.849Z,12432
2017-08-09T11:04:40.872Z,12248
2017-08-09T11:05:26.035Z,11996
2017-08-09T11:06:26.331Z,11984
2017-08-09T11:07:26.387Z,12056
2017-08-09T11:08:26.413Z,11564
2017-08-09T11:09:41.049Z,11304
2017-08-09T11:10:26.482Z,10948
2017-08-09T11:11:26.501Z,11368
2017-08-09T11:12:26.241Z,5700
2017-08-09T11:13:26.575Z,5472
2017-08-09T11:14:26.611Z,6932
2017-08-09T11:15:26.636Z,7468
2017-08-09T11:16:26.668Z,10468
2017-08-09T11:17:26.708Z,10116
2017-08-09T11:18:41.388Z,7728
2017-08-09T11:19:26.160Z,6184
2017-08-09T11:20:26.797Z,6144
2017-08-09T11:21:26.817Z,8324
2017-08-09T11:22:26.875Z,9340
2017-08-09T11:23:26.586Z,6424
2017-08-09T11:24:26.939Z,7504
2017-08-09T11:25:26.662Z,8976
2017-08-09T11:26:27.011Z,8532
2017-08-09T11:27:27.003Z,8296
2017-08-09T11:28:26.744Z,8444
2017-08-09T11:29:26.769Z,8452
2017-08-09T11:30:26.819Z,8224
2017-08-09T11:31:26.856Z,8208
2017-08-09T11:32:27.173Z,8056
2017-08-09T11:34:26.926Z,8932
2017-08-09T11:35:41.887Z,8856
2017-08-09T11:36:26.998Z,6684
2017-08-09T11:37:26.722Z,6204
2017-08-09T11:38:27.376Z,6328
2017-08-09T11:39:27.398Z,8080
2017-08-09T11:40:27.447Z,8540
2017-08-09T11:41:42.051Z,8032
2017-08-09T11:42:27.504Z,9308
2017-08-09T11:43:27.527Z,9200
2017-08-09T11:45:27.594Z,6972
2017-08-09T11:46:42.238Z,8568
2017-08-09T11:47:27.640Z,8660
2017-08-09T11:48:27.434Z,6556
2017-08-09T11:49:27.393Z,9008
2017-08-09T11:50:27.760Z,9668
2017-08-09T11:51:27.478Z,9448
2017-08-09T11:52:27.505Z,10348
2017-08-09T11:53:27.517Z,8160
2017-08-09T11:54:27.580Z,7400
2017-08-09T11:56:27.944Z,8564
2017-08-09T11:58:27.688Z,9324
2017-08-09T12:00:27.756Z,7084
2017-08-09T12:01:27.805Z,7944
2017-08-09T12:02:27.823Z,7240
2017-08-09T12:03:28.140Z,6140
2017-08-09T12:04:28.208Z,7624
2017-08-09T12:05:27.894Z,7400
2017-08-09T12:06:28.244Z,5100
2017-08-09T12:08:28.314Z,5140
2017-08-09T12:09:28.366Z,5204
2017-08-09T12:10:28.352Z,5148
2017-08-09T12:11:28.423Z,7424
2017-08-09T12:12:43.048Z,6672
2017-08-09T12:13:43.072Z,7800
2017-08-09T12:14:28.509Z,7956
2017-08-09T12:16:43.159Z,7264
2017-08-09T12:17:28.297Z,6976
2017-08-09T12:18:28.307Z,6832
2017-08-09T12:19:28.719Z,6808
2017-08-09T12:20:28.391Z,6736
2017-08-09T12:21:28.410Z,6736
2017-08-09T12:22:28.754Z,5696
2017-08-09T12:23:28.476Z,7004
2017-08-09T12:24:28.504Z,7024
2017-08-09T12:25:28.855Z,6840
2017-08-09T12:26:28.893Z,6928
2017-08-09T12:27:28.897Z,7184
2017-08-09T12:28:43.554Z,6832
2017-08-09T12:29:43.560Z,6652
2017-08-09T12:30:28.989Z,5676
2017-08-09T12:31:29.040Z,6536
2017-08-09T12:32:28.771Z,5712
2017-08-09T12:33:28.796Z,6936
2017-08-09T12:34:29.128Z,5072
2017-08-09T12:35:43.754Z,7252
2017-08-09T12:36:28.575Z,7112
2017-08-09T12:37:43.830Z,6968
2017-08-09T12:38:29.242Z,7004
2017-08-09T12:39:28.985Z,6948
2017-08-09T12:40:28.995Z,6916
2017-08-09T12:41:29.025Z,7204
2017-08-09T12:42:29.069Z,4716
2017-08-09T12:43:29.425Z,5036
2017-08-09T12:44:44.020Z,6668
2017-08-09T12:45:29.163Z,4232
2017-08-09T12:46:29.487Z,4188
2017-08-09T12:47:29.522Z,5764
2017-08-09T12:48:29.550Z,4704
2017-08-09T12:49:43.882Z,6616
2017-08-09T12:50:29.314Z,6596
2017-08-09T12:51:29.339Z,4772
2017-08-09T12:52:29.371Z,7088
2017-08-09T12:53:29.695Z,6984
2017-08-09T12:54:29.439Z,6752
2017-08-09T12:55:29.770Z,6656
2017-08-09T12:56:29.503Z,3952
2017-08-09T12:57:44.428Z,3888
2017-08-09T12:58:29.872Z,4024
2017-08-09T12:59:29.900Z,4188
2017-08-09T13:00:29.927Z,4460
2017-08-09T13:01:29.962Z,7116
2017-08-09T13:03:44.622Z,7456
2017-08-09T13:04:30.041Z,7280
2017-08-09T13:05:30.078Z,7292
2017-08-09T13:06:30.086Z,7352
2017-08-09T13:07:30.134Z,7192
2017-08-09T13:08:30.174Z,6776
2017-08-09T13:10:44.825Z,7516
2017-08-09T13:11:29.968Z,7724
2017-08-09T13:12:30.292Z,7768
2017-08-09T13:13:30.029Z,7716
2017-08-09T13:14:30.048Z,7604
2017-08-09T13:16:44.697Z,7352
2017-08-09T13:17:30.129Z,4720
2017-08-09T13:18:30.489Z,7208
2017-08-09T13:19:30.187Z,7172
2017-08-09T13:20:30.534Z,7284
2017-08-09T13:22:30.589Z,7124
2017-08-09T13:23:30.635Z,5908
2017-08-09T13:25:30.693Z,7572
2017-08-09T13:26:30.425Z,7516
2017-08-09T13:27:30.127Z,7580
2017-08-09T13:28:30.800Z,5852
2017-08-09T13:29:30.807Z,7192
2017-08-09T13:30:45.455Z,7148
2017-08-09T13:31:30.874Z,7108
2017-08-09T13:32:45.498Z,6896
2017-08-09T13:33:30.932Z,6720
2017-08-09T13:34:30.961Z,6576
2017-08-09T13:35:30.993Z,6888
2017-08-09T13:36:31.029Z,6752
2017-08-09T13:37:31.065Z,7048
2017-08-09T13:38:45.701Z,6792
2017-08-09T13:39:31.107Z,7160
2017-08-09T13:40:31.167Z,7348
2017-08-09T13:41:31.185Z,7252
2017-08-09T13:42:31.199Z,6612
2017-08-09T13:43:31.252Z,6992
2017-08-09T13:44:30.948Z,7072
2017-08-09T13:45:31.013Z,6908
2017-08-09T13:46:31.033Z,7096
2017-08-09T13:47:31.390Z,7228
2017-08-09T13:48:45.991Z,7396
2017-08-09T13:49:31.441Z,6456
2017-08-09T13:50:31.140Z,5068
2017-08-09T13:51:46.092Z,7192
2017-08-09T13:52:31.527Z,7088
2017-08-09T13:53:46.175Z,7460
2017-08-09T13:54:31.604Z,7488
2017-08-09T13:55:31.281Z,7612
2017-08-09T13:56:31.655Z,7832
2017-08-09T13:57:31.650Z,8188
2017-08-09T13:58:31.693Z,8476
2017-08-09T13:59:31.411Z,8668
2017-08-09T14:00:31.463Z,8684
2017-08-09T14:01:46.077Z,8876
2017-08-09T14:02:31.821Z,9084
2017-08-09T14:03:31.854Z,9180
2017-08-09T14:04:46.486Z,8920
2017-08-09T14:05:31.611Z,8740
2017-08-09T14:06:31.968Z,7680
2017-08-09T14:07:31.675Z,6436
2017-08-09T14:08:31.694Z,5900
2017-08-09T14:09:31.732Z,5616
2017-08-09T14:10:32.083Z,5508
2017-08-09T14:11:46.712Z,5428
2017-08-09T14:12:32.115Z,7924
2017-08-09T14:13:31.864Z,7852
2017-08-09T14:14:31.877Z,5436
2017-08-09T14:15:31.918Z,5516
2017-08-09T14:16:31.938Z,7908
2017-08-09T14:17:32.290Z,7900
2017-08-09T14:18:32.022Z,7948